Time;durP1;ratioP1;P1;durP2;ratioP2;P2;SDS_P1;SDS_P2;PMS_P1;PMS_P2;Temp;Humidity;BMP_temperature;BMP_pressure;BME280_temperature;BME280_humidity;BME280_pressure;Samples;Min_cycle;Max_cycle;Signal;HPM_P1;HPM_P2
2021/12/07 00:01:27;;;;;;;2.63;1.73;;;5.20;99.90;;;;;;4952837;29;20184;-68
2021/12/07 00:03:53;;;;;;;1.63;1.40;;;5.20;99.90;;;;;;4948721;29;20258;-68
2021/12/07 00:06:19;;;;;;;1.40;1.30;;;5.20;99.90;;;;;;4951443;29;20263;-68
2021/12/07 00:08:51;;;;;;;1.23;1.13;;;5.30;99.90;;;;;;4951324;29;20185;-69
2021/12/07 00:11:19;;;;;;;1.30;1.00;;;5.30;99.90;;;;;;4950855;28;20361;-69
2021/12/07 00:13:47;;;;;;;1.50;1.00;;;5.40;99.90;;;;;;4950842;28;20195;-68
2021/12/07 00:16:15;;;;;;;0.97;0.70;;;5.40;99.90;;;;;;4949524;29;20195;-69
2021/12/07 00:18:41;;;;;;;1.23;0.50;;;5.50;99.90;;;;;;4951045;29;20216;-69
2021/12/07 00:21:08;;;;;;;0.50;0.40;;;5.50;99.90;;;;;;4947458;29;20177;-69
2021/12/07 00:23:37;;;;;;;0.30;0.30;;;5.50;99.90;;;;;;4951294;29;20267;-71
2021/12/07 00:26:05;;;;;;;0.37;0.30;;;5.50;99.90;;;;;;4969350;28;20273;-70
2021/12/07 00:28:33;;;;;;;0.30;0.30;;;5.50;99.90;;;;;;4951654;28;20220;-72
2021/12/07 00:31:09;;;;;;;0.60;0.30;;;5.40;99.90;;;;;;4967699;28;20283;-71
2021/12/07 00:33:53;;;;;;;0.20;0.20;;;5.40;99.90;;;;;;4951170;29;20196;-72
2021/12/07 00:36:19;;;;;;;0.53;0.10;;;5.30;99.90;;;;;;4948977;28;20205;-72
2021/12/07 00:38:46;;;;;;;0.10;0.10;;;5.20;99.90;;;;;;4952527;28;20239;-70
2021/12/07 00:41:12;;;;;;;0.20;0.20;;;5.20;99.90;;;;;;4951086;29;20185;-71
2021/12/07 00:43:42;;;;;;;0.20;0.20;;;5.10;99.90;;;;;;4951361;28;20223;-72
2021/12/07 00:46:11;;;;;;;0.30;0.20;;;5.10;99.90;;;;;;4952307;29;20184;-71
2021/12/07 00:48:37;;;;;;;0.10;0.10;;;5.00;99.90;;;;;;4946031;28;20205;-72
2021/12/07 00:51:03;;;;;;;0.10;0.10;;;4.90;99.90;;;;;;4947985;29;20212;-72
2021/12/07 00:53:31;;;;;;;0.10;0.10;;;4.90;99.90;;;;;;4949737;28;20188;-73
2021/12/07 00:55:59;;;;;;;0.10;0.10;;;4.80;99.90;;;;;;4950312;28;20216;-72
2021/12/07 00:58:26;;;;;;;0.20;0.20;;;4.70;99.90;;;;;;4951664;29;20201;-73
2021/12/07 01:01:04;;;;;;;0.20;0.20;;;4.70;99.90;;;;;;4954158;28;20188;-72
2021/12/07 01:03:32;;;;;;;0.30;0.13;;;4.60;99.90;;;;;;4946980;28;20184;-72
2021/12/07 01:06:44;;;;;;;0.60;0.30;;;4.60;99.90;;;;;;4950816;29;20188;-71
2021/12/07 01:25:26;;;;;;;1.00;0.50;;;4.60;99.90;;;;;;4948350;29;20267;-72
2021/12/07 01:27:55;;;;;;;0.67;0.60;;;4.60;99.90;;;;;;4943058;29;20262;-73
2021/12/07 01:30:38;;;;;;;1.17;0.80;;;4.60;99.90;;;;;;4948146;29;20177;-73
2021/12/07 01:33:31;;;;;;;0.63;0.60;;;4.70;99.90;;;;;;4949608;28;20186;-73
2021/12/07 01:59:36;;;;;;;3.67;2.30;;;5.30;99.90;;;;;;4945887;29;20204;-75
2021/12/07 02:02:13;;;;;;;2.90;2.00;;;5.40;99.90;;;;;;4948073;28;20460;-75
2021/12/07 02:04:42;;;;;;;2.97;2.10;;;5.40;99.90;;;;;;4951205;29;20175;-75
2021/12/07 02:07:16;;;;;;;3.73;2.40;;;5.50;99.90;;;;;;4949730;29;20177;-76
2021/12/07 02:09:52;;;;;;;3.77;1.90;;;5.50;99.90;;;;;;4948047;28;20256;-74
2021/12/07 02:12:26;;;;;;;4.10;1.70;;;5.60;99.90;;;;;;4945936;28;20185;-72
2021/12/07 02:14:54;;;;;;;2.10;1.40;;;5.60;99.90;;;;;;4949240;29;20181;-71
2021/12/07 02:17:23;;;;;;;3.27;1.73;;;5.60;99.90;;;;;;4950575;28;20293;-72
2021/12/07 02:19:49;;;;;;;3.23;1.50;;;5.60;99.90;;;;;;4943751;29;20212;-72
2021/12/07 02:22:20;;;;;;;3.30;1.90;;;5.70;99.90;;;;;;4947964;29;20237;-71
2021/12/07 02:24:49;;;;;;;2.33;1.30;;;5.70;99.90;;;;;;4950445;28;20201;-70
2021/12/07 02:27:15;;;;;;;2.07;1.20;;;5.70;99.90;;;;;;4941946;28;20448;-70
2021/12/07 02:29:40;;;;;;;3.33;1.50;;;5.70;99.90;;;;;;4946425;29;20214;-71
2021/12/07 02:32:06;;;;;;;3.03;1.43;;;5.70;99.90;;;;;;4950965;29;20207;-71
2021/12/07 02:34:35;;;;;;;2.37;1.43;;;5.70;99.90;;;;;;4950287;29;20196;-72
2021/12/07 02:37:03;;;;;;;3.73;2.00;;;5.70;99.90;;;;;;4948221;28;20239;-71
2021/12/07 02:39:35;;;;;;;3.17;1.60;;;5.70;99.90;;;;;;4957559;28;20201;-72
2021/12/07 02:42:06;;;;;;;4.43;2.17;;;5.70;99.90;;;;;;4945310;29;20197;-72
2021/12/07 02:44:33;;;;;;;6.53;2.30;;;5.70;99.90;;;;;;4950449;29;20201;-71
2021/12/07 02:46:59;;;;;;;4.17;2.40;;;5.70;99.90;;;;;;4949636;28;20268;-72
2021/12/07 02:49:25;;;;;;;3.07;2.20;;;5.80;99.90;;;;;;4960418;28;20285;-72
2021/12/07 02:51:51;;;;;;;2.90;1.93;;;5.80;99.90;;;;;;4957344;28;20535;-69
2021/12/07 02:54:17;;;;;;;3.33;2.13;;;5.80;99.90;;;;;;4946441;28;20176;-70
2021/12/07 02:56:45;;;;;;;5.97;2.63;;;5.90;99.90;;;;;;4949535;28;20410;-72
2021/12/07 02:59:11;;;;;;;3.67;2.23;;;5.90;99.90;;;;;;4945298;28;20288;-71
2021/12/07 03:01:46;;;;;;;5.33;2.40;;;5.90;99.90;;;;;;4959381;28;20267;-70
2021/12/07 03:04:23;;;;;;;6.40;2.77;;;6.00;99.90;;;;;;4950262;28;20180;-70
2021/12/07 03:26:28;;;;;;;8.93;2.73;;;6.30;99.90;;;;;;4947002;29;20262;-71
2021/12/07 03:28:59;;;;;;;5.50;2.67;;;6.40;99.90;;;;;;4953147;28;20211;-70
2021/12/07 03:31:26;;;;;;;6.47;3.00;;;6.40;99.90;;;;;;4966907;28;20181;-70
2021/12/07 03:33:56;;;;;;;4.13;2.37;;;6.50;99.90;;;;;;4951960;28;20195;-69
2021/12/07 03:36:25;;;;;;;6.67;3.07;;;6.50;99.90;;;;;;4959376;28;20215;-70
2021/12/07 03:38:51;;;;;;;8.43;2.80;;;6.60;99.90;;;;;;4953733;28;20215;-70
2021/12/07 03:41:18;;;;;;;10.87;3.30;;;6.60;99.90;;;;;;4957722;28;20243;-69
2021/12/07 03:43:43;;;;;;;9.30;2.50;;;6.60;99.90;;;;;;4952283;28;20205;-70
2021/12/07 03:46:09;;;;;;;6.97;2.60;;;6.70;99.90;;;;;;4951856;29;20238;-71
2021/12/07 03:48:37;;;;;;;6.10;2.63;;;6.70;99.90;;;;;;4950964;28;20184;-71
2021/12/07 03:51:08;;;;;;;7.43;2.73;;;6.70;99.90;;;;;;4977335;28;20201;-70
2021/12/07 03:53:34;;;;;;;5.33;2.60;;;6.70;99.90;;;;;;4955440;28;20230;-71
2021/12/07 03:56:07;;;;;;;6.53;2.67;;;6.80;99.90;;;;;;4966524;28;20249;-71
2021/12/07 03:58:33;;;;;;;10.27;2.50;;;6.80;99.90;;;;;;4949419;28;20228;-69
2021/12/07 04:01:02;;;;;;;4.97;2.67;;;6.80;99.90;;;;;;4956349;28;20291;-69
2021/12/07 04:03:33;;;;;;;6.23;2.57;;;6.80;99.90;;;;;;4948385;28;20193;-71
2021/12/07 04:06:04;;;;;;;7.97;2.80;;;6.80;99.90;;;;;;4948135;29;20180;-69
2021/12/07 04:08:30;;;;;;;6.60;2.70;;;6.80;99.90;;;;;;4950059;28;20185;-70
2021/12/07 04:11:02;;;;;;;8.80;2.40;;;6.80;99.90;;;;;;4949389;29;20186;-67
2021/12/07 04:13:30;;;;;;;4.77;2.50;;;6.80;99.90;;;;;;4962121;28;20185;-69
2021/12/07 04:15:57;;;;;;;7.10;2.67;;;6.80;99.90;;;;;;4953353;29;20500;-71
2021/12/07 04:18:23;;;;;;;9.30;2.77;;;6.80;99.90;;;;;;4950330;28;20204;-71
2021/12/07 04:20:51;;;;;;;7.20;2.90;;;6.80;99.90;;;;;;4957702;28;20226;-69
2021/12/07 04:23:20;;;;;;;6.90;2.70;;;6.80;99.90;;;;;;4951886;29;20208;-71
2021/12/07 04:25:48;;;;;;;6.47;2.30;;;6.80;99.90;;;;;;4949029;29;20174;-70
2021/12/07 04:28:14;;;;;;;8.43;3.03;;;6.70;99.90;;;;;;4948052;28;20191;-71
2021/12/07 04:30:42;;;;;;;5.97;2.67;;;6.70;99.90;;;;;;4950289;28;20196;-71
2021/12/07 04:33:10;;;;;;;7.50;2.90;;;6.70;99.90;;;;;;4943893;29;20185;-71
2021/12/07 04:35:37;;;;;;;6.27;2.87;;;6.70;99.90;;;;;;4964619;28;20209;-71
2021/12/07 04:38:04;;;;;;;6.37;2.77;;;6.70;99.90;;;;;;4953122;29;20307;-72
2021/12/07 04:40:31;;;;;;;5.73;2.90;;;6.70;99.90;;;;;;4951941;29;20243;-71
2021/12/07 04:42:58;;;;;;;5.97;2.70;;;6.70;99.90;;;;;;4933913;28;20193;-71
2021/12/07 04:59:11;;;;;;;7.33;2.60;;;6.70;99.90;;;;;;4952035;29;20258;-70
2021/12/07 05:01:40;;;;;;;6.67;2.60;;;6.70;99.90;;;;;;4950682;28;20212;-71
2021/12/07 05:04:14;;;;;;;6.63;2.70;;;6.70;99.90;;;;;;4952784;29;20297;-71
2021/12/07 05:06:46;;;;;;;5.80;2.53;;;6.70;99.90;;;;;;4948691;29;20264;-70
2021/12/07 05:14:33;;;;;;;6.40;2.60;;;6.70;99.90;;;;;;4949288;28;20193;-72
2021/12/07 05:38:47;;;;;;;4.60;2.40;;;6.60;99.90;;;;;;4942029;29;20222;-70
2021/12/07 05:41:16;;;;;;;5.70;2.37;;;6.60;99.90;;;;;;4952816;28;20242;-69
2021/12/07 05:43:42;;;;;;;6.50;2.37;;;6.60;99.90;;;;;;4944966;28;20196;-71
2021/12/07 05:46:12;;;;;;;6.43;2.23;;;6.60;99.90;;;;;;4949896;29;20207;-70
2021/12/07 05:48:40;;;;;;;4.50;2.30;;;6.60;99.90;;;;;;4950157;28;20197;-70
2021/12/07 05:51:07;;;;;;;4.73;2.13;;;6.50;99.90;;;;;;4949415;29;20362;-71
2021/12/07 05:53:38;;;;;;;6.77;2.70;;;6.60;99.90;;;;;;4948113;29;20174;-67
2021/12/07 05:56:08;;;;;;;4.23;2.07;;;6.60;99.90;;;;;;4943431;29;20200;-70
2021/12/07 05:58:34;;;;;;;5.97;2.30;;;6.60;99.90;;;;;;4950694;29;20201;-70
2021/12/07 06:01:00;;;;;;;5.53;2.00;;;6.60;99.90;;;;;;4950415;29;20215;-66
2021/12/07 06:03:30;;;;;;;6.40;2.00;;;6.60;99.90;;;;;;4949155;29;20434;-66
2021/12/07 06:06:03;;;;;;;3.97;2.00;;;6.60;99.90;;;;;;4946794;29;20200;-68
2021/12/07 06:08:29;;;;;;;4.40;1.70;;;6.60;99.90;;;;;;4949417;28;20215;-68
2021/12/07 06:10:57;;;;;;;4.63;2.10;;;6.60;99.90;;;;;;4946745;29;20185;-67
2021/12/07 06:13:23;;;;;;;4.43;1.97;;;6.50;99.90;;;;;;4949175;29;20246;-66
2021/12/07 06:15:51;;;;;;;3.87;1.87;;;6.50;99.90;;;;;;4949093;29;20180;-66
2021/12/07 06:18:20;;;;;;;6.13;1.90;;;6.50;99.90;;;;;;4954317;28;20201;-68
2021/12/07 06:20:51;;;;;;;4.67;1.93;;;6.50;99.90;;;;;;4964452;28;20200;-65
2021/12/07 06:23:23;;;;;;;7.53;2.10;;;6.40;99.90;;;;;;4947430;28;20231;-66
2021/12/07 06:25:56;;;;;;;4.47;2.00;;;6.40;99.90;;;;;;4942240;28;20188;-66
2021/12/07 06:28:21;;;;;;;4.77;2.10;;;6.40;99.90;;;;;;4947510;29;20205;-66
2021/12/07 06:30:59;;;;;;;4.90;2.30;;;6.30;99.90;;;;;;4953351;28;20234;-66
2021/12/07 06:33:26;;;;;;;4.63;2.07;;;6.30;99.90;;;;;;4959763;28;20184;-66
2021/12/07 06:35:57;;;;;;;4.17;1.73;;;6.30;99.90;;;;;;4950869;28;20185;-65
2021/12/07 06:38:29;;;;;;;6.90;2.40;;;6.30;99.90;;;;;;4940810;28;20227;-68
2021/12/07 06:40:58;;;;;;;6.60;2.57;;;6.30;99.90;;;;;;4959185;28;20201;-68
2021/12/07 06:43:26;;;;;;;5.53;2.10;;;6.30;99.90;;;;;;4945615;28;20208;-68
2021/12/07 06:45:53;;;;;;;5.40;2.00;;;6.20;99.90;;;;;;4949549;28;20188;-67
2021/12/07 06:48:29;;;;;;;5.03;1.90;;;6.20;99.90;;;;;;4941352;29;20208;-68
2021/12/07 06:50:54;;;;;;;4.43;1.93;;;6.20;99.90;;;;;;4948823;29;20180;-68
2021/12/07 06:53:23;;;;;;;4.23;1.87;;;6.20;99.90;;;;;;4941198;29;20188;-68
2021/12/07 06:55:56;;;;;;;3.40;1.97;;;6.20;99.90;;;;;;4948508;29;20173;-68
2021/12/07 06:58:21;;;;;;;3.60;1.87;;;6.20;99.90;;;;;;4955541;28;20201;-68
2021/12/07 07:00:50;;;;;;;3.83;2.10;;;6.20;99.90;;;;;;4948213;29;20291;-69
2021/12/07 07:03:18;;;;;;;2.53;1.70;;;6.10;99.90;;;;;;4947740;28;20213;-68
2021/12/07 07:05:46;;;;;;;6.80;2.17;;;6.10;99.90;;;;;;4945547;29;20177;-68
2021/12/07 07:08:12;;;;;;;3.73;1.90;;;6.10;99.90;;;;;;4939462;28;20207;-67
2021/12/07 07:10:37;;;;;;;5.03;2.10;;;6.00;99.90;;;;;;4951965;28;20343;-67
2021/12/07 07:13:06;;;;;;;3.20;1.80;;;6.00;99.90;;;;;;4953755;28;20302;-67
2021/12/07 07:15:31;;;;;;;4.50;2.00;;;6.00;99.90;;;;;;4960460;28;20192;-68
2021/12/07 07:18:00;;;;;;;3.37;1.90;;;6.00;99.90;;;;;;4965013;28;20196;-67
2021/12/07 07:20:29;;;;;;;4.27;2.07;;;5.90;99.90;;;;;;4950380;28;20216;-68
2021/12/07 07:22:58;;;;;;;3.80;2.00;;;5.90;99.90;;;;;;4952941;29;20256;-68
2021/12/07 07:25:29;;;;;;;6.20;2.27;;;5.90;99.90;;;;;;4943496;29;20185;-69
2021/12/07 07:27:55;;;;;;;3.70;2.20;;;5.90;99.90;;;;;;4951875;28;20187;-67
2021/12/07 07:30:21;;;;;;;5.90;2.57;;;5.80;99.90;;;;;;4945635;29;20165;-67
2021/12/07 07:32:50;;;;;;;3.97;2.20;;;5.80;99.90;;;;;;4951682;28;20280;-67
2021/12/07 07:35:16;;;;;;;5.70;2.13;;;5.80;99.90;;;;;;4951915;28;20173;-70
2021/12/07 07:37:48;;;;;;;4.83;2.20;;;5.80;99.90;;;;;;4953905;29;20240;-67
2021/12/07 07:40:22;;;;;;;3.47;2.00;;;5.80;99.90;;;;;;4969355;28;20420;-67
2021/12/07 07:42:51;;;;;;;4.30;1.83;;;5.80;99.90;;;;;;4949848;29;20192;-67
2021/12/07 07:45:22;;;;;;;4.87;2.07;;;5.80;99.90;;;;;;4952072;29;20197;-68
2021/12/07 07:47:54;;;;;;;5.43;1.90;;;5.80;99.90;;;;;;4953467;28;20259;-67
2021/12/07 07:50:21;;;;;;;4.37;1.80;;;5.90;99.90;;;;;;4969673;28;20197;-68
2021/12/07 07:52:49;;;;;;;5.27;2.30;;;5.90;99.90;;;;;;4951731;28;20173;-68
2021/12/07 07:55:16;;;;;;;4.67;2.20;;;5.90;99.90;;;;;;4952761;28;20185;-68
2021/12/07 07:57:42;;;;;;;3.40;1.90;;;5.90;99.90;;;;;;4947147;28;20211;-67
2021/12/07 08:00:16;;;;;;;4.70;1.90;;;5.90;99.90;;;;;;4949130;29;20216;-68
2021/12/07 08:02:52;;;;;;;4.87;1.80;;;5.90;99.90;;;;;;4945096;29;20182;-68
2021/12/07 08:05:18;;;;;;;3.13;1.70;;;5.90;99.90;;;;;;4949794;29;20275;-68
2021/12/07 08:07:47;;;;;;;5.63;2.30;;;5.90;99.90;;;;;;4951348;28;20319;-67
2021/12/07 08:10:18;;;;;;;5.40;2.17;;;5.90;99.90;;;;;;4954264;28;20193;-68
2021/12/07 08:13:07;;;;;;;3.53;2.30;;;5.90;99.90;;;;;;4947020;29;20195;-67
2021/12/07 08:15:38;;;;;;;4.77;2.20;;;5.90;99.90;;;;;;4966808;28;20290;-67
2021/12/07 08:18:06;;;;;;;7.60;2.77;;;5.90;99.90;;;;;;4949678;28;20197;-68
2021/12/07 08:20:45;;;;;;;6.73;2.50;;;5.90;99.90;;;;;;4949003;29;20185;-66
2021/12/07 08:23:14;;;;;;;4.23;2.30;;;5.90;99.90;;;;;;4948838;29;20203;-66
2021/12/07 08:25:45;;;;;;;4.23;2.47;;;5.90;99.90;;;;;;4945339;29;20315;-68
2021/12/07 08:28:17;;;;;;;5.87;2.40;;;5.90;99.90;;;;;;4952345;28;20181;-67
2021/12/07 08:30:43;;;;;;;5.57;2.40;;;5.90;99.90;;;;;;4949119;29;20192;-67
2021/12/07 08:33:12;;;;;;;6.73;2.30;;;5.90;99.90;;;;;;4947607;29;20176;-68
2021/12/07 08:35:47;;;;;;;4.80;2.10;;;5.80;99.90;;;;;;4951433;29;20238;-67
2021/12/07 08:38:13;;;;;;;4.53;2.17;;;5.80;99.90;;;;;;4951482;28;20421;-66
2021/12/07 08:40:53;;;;;;;5.23;2.03;;;5.80;99.90;;;;;;4949873;28;20169;-66
2021/12/07 08:43:28;;;;;;;4.73;2.03;;;5.80;99.90;;;;;;4949227;28;20219;-67
2021/12/07 08:45:57;;;;;;;4.97;2.00;;;5.80;99.90;;;;;;4949105;28;20188;-68
2021/12/07 08:48:23;;;;;;;5.37;2.00;;;5.80;99.90;;;;;;4948679;29;20189;-68
2021/12/07 08:50:52;;;;;;;4.20;1.70;;;5.90;99.90;;;;;;4964830;28;20378;-67
2021/12/07 08:53:21;;;;;;;4.90;1.67;;;5.90;99.90;;;;;;4950297;29;20203;-67
2021/12/07 09:01:25;;;;;;;5.43;1.67;;;6.10;99.90;;;;;;4950646;28;20194;-67
2021/12/07 09:04:02;;;;;;;4.67;1.73;;;6.20;99.90;;;;;;4949490;28;20195;-67
2021/12/07 09:06:29;;;;;;;3.33;1.50;;;6.30;99.90;;;;;;4948212;29;20204;-67
2021/12/07 09:08:56;;;;;;;4.63;1.50;;;6.40;99.90;;;;;;4948521;28;20197;-67
2021/12/07 09:11:28;;;;;;;4.27;1.77;;;6.50;99.90;;;;;;4965206;28;20181;-66
2021/12/07 09:13:56;;;;;;;5.40;1.83;;;6.60;99.90;;;;;;4945915;29;20272;-67
2021/12/07 09:16:22;;;;;;;3.03;1.50;;;6.80;99.90;;;;;;4954197;28;20181;-67
2021/12/07 09:18:53;;;;;;;5.10;1.70;;;7.00;99.90;;;;;;4943042;28;20216;-67
2021/12/07 09:21:19;;;;;;;5.77;1.63;;;7.10;99.90;;;;;;4950768;28;20252;-68
2021/12/07 09:23:46;;;;;;;8.07;2.00;;;7.30;99.90;;;;;;4950817;28;20217;-68
2021/12/07 09:26:15;;;;;;;6.37;1.63;;;7.50;99.90;;;;;;4957008;28;20178;-68
2021/12/07 09:28:41;;;;;;;4.33;1.63;;;7.60;99.90;;;;;;4954967;28;20184;-68
2021/12/07 09:31:11;;;;;;;5.33;1.77;;;7.70;99.90;;;;;;4948347;28;20181;-68
2021/12/07 09:33:44;;;;;;;4.90;1.50;;;7.90;99.90;;;;;;4965255;28;20185;-68
2021/12/07 09:36:18;;;;;;;5.80;1.63;;;8.00;99.90;;;;;;4946465;28;20195;-68
2021/12/07 09:38:46;;;;;;;8.63;2.00;;;8.10;99.90;;;;;;4952340;28;20212;-68
2021/12/07 09:41:13;;;;;;;5.40;1.60;;;8.10;99.90;;;;;;4949516;29;20181;-67
2021/12/07 09:43:39;;;;;;;4.63;1.63;;;8.20;99.90;;;;;;4953499;28;20256;-68
2021/12/07 09:46:07;;;;;;;4.73;1.57;;;8.20;99.90;;;;;;4947713;28;20257;-68
2021/12/07 09:48:43;;;;;;;5.33;1.80;;;8.20;99.90;;;;;;4948853;28;20197;-68
2021/12/07 09:51:14;;;;;;;4.83;1.60;;;8.30;99.90;;;;;;4947211;28;20224;-67
2021/12/07 09:53:42;;;;;;;8.63;2.33;;;8.40;99.90;;;;;;4951331;28;20197;-67
2021/12/07 09:56:11;;;;;;;5.33;1.50;;;8.40;99.90;;;;;;4940358;29;20177;-68
2021/12/07 09:58:38;;;;;;;3.70;1.70;;;8.40;99.90;;;;;;4949896;28;20212;-67
2021/12/07 10:01:30;;;;;;;4.20;1.50;;;8.40;99.90;;;;;;4945858;28;20275;-67
2021/12/07 10:04:02;;;;;;;4.73;1.40;;;8.50;99.90;;;;;;4947171;29;20181;-67
2021/12/07 10:06:36;;;;;;;4.67;1.40;;;8.40;99.90;;;;;;4958571;28;20180;-66
2021/12/07 10:09:04;;;;;;;8.77;2.13;;;8.40;99.90;;;;;;4951630;28;20178;-66
2021/12/07 10:11:36;;;;;;;4.30;1.43;;;8.50;99.90;;;;;;4946921;28;20189;-66
2021/12/07 10:14:07;;;;;;;4.00;1.83;;;8.50;99.90;;;;;;4949035;29;20322;-66
2021/12/07 10:16:43;;;;;;;7.33;1.70;;;8.50;99.90;;;;;;4953915;28;20272;-67
2021/12/07 10:19:11;;;;;;;5.80;1.50;;;8.60;99.90;;;;;;4947307;29;20221;-67
2021/12/07 10:21:41;;;;;;;5.87;1.87;;;8.60;99.90;;;;;;4947357;29;20177;-66
2021/12/07 10:24:10;;;;;;;4.57;1.50;;;8.60;99.90;;;;;;4945960;29;20177;-67
2021/12/07 10:26:48;;;;;;;3.60;1.40;;;8.60;99.90;;;;;;4949337;28;20271;-68
2021/12/07 10:29:20;;;;;;;4.07;1.33;;;8.60;99.90;;;;;;4941815;29;20185;-67
2021/12/07 10:31:55;;;;;;;5.03;1.60;;;8.60;99.90;;;;;;4959159;28;20226;-67
2021/12/07 10:34:32;;;;;;;5.07;1.70;;;8.70;99.90;;;;;;4949322;29;20190;-66
2021/12/07 10:37:11;;;;;;;4.43;1.40;;;8.70;99.90;;;;;;4947456;29;20176;-67
2021/12/07 10:39:52;;;;;;;7.00;1.50;;;8.70;99.90;;;;;;4945463;28;20215;-66
2021/12/07 10:42:21;;;;;;;6.57;1.70;;;8.80;99.90;;;;;;4948405;28;20193;-66
2021/12/07 10:44:51;;;;;;;4.17;1.37;;;8.80;99.90;;;;;;4949784;28;20195;-66
2021/12/07 10:47:22;;;;;;;4.03;1.40;;;8.90;99.90;;;;;;4950440;29;20177;-66
2021/12/07 10:49:58;;;;;;;5.40;1.50;;;8.90;99.90;;;;;;4949600;28;20192;-68
2021/12/07 10:52:40;;;;;;;6.47;1.80;;;9.00;99.90;;;;;;4949710;28;20195;-68
2021/12/07 10:55:46;;;;;;;7.30;2.07;;;9.00;99.90;;;;;;4938288;29;20327;-67
2021/12/07 10:58:15;;;;;;;4.40;1.80;;;9.00;99.90;;;;;;4980857;28;20257;-67
2021/12/07 11:00:45;;;;;;;3.40;1.20;;;9.00;99.90;;;;;;4946386;28;20869;-67
2021/12/07 11:03:13;;;;;;;3.57;1.40;;;9.10;99.90;;;;;;4942142;29;20257;-67
2021/12/07 11:05:46;;;;;;;3.33;1.20;;;9.10;99.90;;;;;;4940885;29;20181;-67
2021/12/07 11:08:19;;;;;;;5.03;1.83;;;9.20;99.90;;;;;;4946758;29;20178;-68
2021/12/07 11:10:48;;;;;;;4.60;1.43;;;9.20;99.90;;;;;;4948786;28;20279;-66
2021/12/07 11:13:21;;;;;;;4.40;1.50;;;9.20;99.90;;;;;;4936643;29;20193;-67
2021/12/07 11:15:54;;;;;;;5.73;1.50;;;9.20;99.90;;;;;;4945288;29;20181;-66
2021/12/07 11:18:25;;;;;;;3.80;1.40;;;9.30;99.90;;;;;;4948737;29;20249;-67
2021/12/07 11:20:53;;;;;;;5.83;1.80;;;9.30;99.90;;;;;;4945946;29;20188;-67
2021/12/07 11:23:23;;;;;;;4.80;1.50;;;9.40;99.90;;;;;;4944277;29;20322;-67
2021/12/07 11:31:37;;;;;;;4.70;1.60;;;9.90;99.90;;;;;;4945253;29;20195;-68
2021/12/07 11:34:13;;;;;;;6.87;1.60;;;10.00;99.90;;;;;;4969157;28;20247;-67
2021/12/07 11:36:54;;;;;;;3.73;1.33;;;10.10;99.90;;;;;;4959374;28;20182;-67
2021/12/07 11:39:51;;;;;;;3.87;1.27;;;10.20;99.90;;;;;;4958841;28;20204;-67
2021/12/07 11:42:37;;;;;;;4.23;1.30;;;10.30;99.90;;;;;;4949563;28;20469;-68
2021/12/07 11:45:06;;;;;;;6.43;2.00;;;10.40;99.90;;;;;;4949596;28;20224;-67
2021/12/07 11:48:13;;;;;;;5.73;1.87;;;10.50;99.90;;;;;;4941004;29;20181;-67
2021/12/07 11:51:06;;;;;;;4.60;1.90;;;10.60;99.90;;;;;;5013433;28;20198;-67
2021/12/07 11:53:37;;;;;;;3.73;1.37;;;10.60;99.90;;;;;;5007330;28;20202;-67
2021/12/07 11:56:03;;;;;;;2.03;1.30;;;10.60;99.90;;;;;;4970414;28;20204;-67
2021/12/07 11:58:29;;;;;;;5.93;1.70;;;10.60;99.90;;;;;;4948331;29;20212;-66
2021/12/07 12:00:59;;;;;;;5.67;2.07;;;10.70;99.90;;;;;;4949695;29;20204;-66
2021/12/07 12:03:29;;;;;;;3.42;1.48;;;10.70;99.90;;;;;;4936260;28;20182;-67
2021/12/07 12:05:59;;;;;;;3.77;1.47;;;10.70;99.90;;;;;;4950171;29;20184;-66
2021/12/07 12:08:25;;;;;;;3.57;1.30;;;10.80;99.90;;;;;;4946810;29;20229;-66
2021/12/07 12:11:17;;;;;;;4.25;1.20;;;10.90;99.90;;;;;;4948821;28;20193;-66
2021/12/07 12:14:05;;;;;;;4.18;1.60;;;11.00;99.90;;;;;;4944447;29;20220;-67
2021/12/07 12:16:45;;;;;;;5.00;1.48;;;11.10;99.90;;;;;;4952522;29;20192;-66
2021/12/07 12:19:41;;;;;;;2.53;1.30;;;11.10;99.90;;;;;;4961161;28;20204;-67
2021/12/07 12:22:21;;;;;;;5.35;1.50;;;11.00;99.90;;;;;;4968175;28;20192;-66
2021/12/07 12:24:53;;;;;;;4.22;1.40;;;11.00;99.90;;;;;;4952526;29;20208;-66
2021/12/07 12:27:22;;;;;;;4.80;1.77;;;11.00;99.90;;;;;;4945002;29;20189;-66
2021/12/07 12:29:51;;;;;;;1.80;1.20;;;10.90;99.90;;;;;;4956164;28;20307;-67
2021/12/07 12:32:36;;;;;;;3.73;1.30;;;10.80;99.90;;;;;;4947184;29;20192;-65
2021/12/07 12:35:06;;;;;;;2.27;0.90;;;10.80;99.90;;;;;;4961658;28;20192;-66
2021/12/07 12:37:32;;;;;;;4.23;1.30;;;10.70;99.90;;;;;;4941174;29;20199;-67
2021/12/07 12:40:06;;;;;;;3.50;1.10;;;10.70;99.90;;;;;;4948768;29;20218;-66
2021/12/07 12:42:37;;;;;;;4.77;1.60;;;10.60;99.90;;;;;;4955800;28;20193;-66
2021/12/07 12:45:26;;;;;;;4.17;1.30;;;10.50;99.90;;;;;;4942792;29;20238;-67
2021/12/07 12:48:03;;;;;;;3.70;1.30;;;10.40;99.90;;;;;;4942640;28;20193;-66
2021/12/07 12:50:44;;;;;;;3.63;1.20;;;10.30;99.90;;;;;;4949682;29;20265;-67
2021/12/07 12:53:15;;;;;;;3.00;1.17;;;10.10;99.90;;;;;;4961500;28;20193;-66
2021/12/07 12:55:51;;;;;;;2.90;1.13;;;10.10;99.90;;;;;;4951544;29;20193;-67
2021/12/07 12:58:20;;;;;;;3.60;1.23;;;10.00;99.90;;;;;;4962287;28;20199;-67
2021/12/07 13:01:23;;;;;;;3.20;1.10;;;10.00;99.90;;;;;;4959876;28;20216;-66
2021/12/07 13:04:01;;;;;;;2.80;1.23;;;9.90;99.90;;;;;;4950563;29;20177;-66
2021/12/07 13:06:33;;;;;;;5.57;1.50;;;9.90;99.90;;;;;;4950657;29;20181;-65
2021/12/07 13:09:10;;;;;;;3.43;1.43;;;9.80;99.90;;;;;;4964797;28;20283;-66
2021/12/07 13:11:40;;;;;;;6.53;1.60;;;9.80;99.90;;;;;;4962524;28;20322;-66
2021/12/07 13:14:29;;;;;;;4.93;1.50;;;9.70;99.90;;;;;;4963385;28;20303;-66
2021/12/07 13:17:22;;;;;;;3.77;1.50;;;9.70;99.90;;;;;;4970787;28;20181;-66
2021/12/07 13:20:29;;;;;;;3.70;1.50;;;9.70;99.90;;;;;;4943027;28;20204;-66
2021/12/07 13:22:57;;;;;;;3.60;1.30;;;9.60;99.90;;;;;;4958028;28;20203;-66
2021/12/07 13:25:29;;;;;;;4.30;1.57;;;9.50;99.90;;;;;;4950830;28;20196;-66
2021/12/07 13:28:07;;;;;;;2.73;1.03;;;9.40;99.90;;;;;;4949334;29;20185;-65
2021/12/07 13:30:57;;;;;;;4.53;1.20;;;9.30;99.90;;;;;;4947175;29;20189;-66
2021/12/07 13:33:28;;;;;;;4.53;1.47;;;9.30;99.90;;;;;;4941730;29;20277;-66
2021/12/07 13:35:54;;;;;;;3.20;1.00;;;9.20;99.90;;;;;;4945249;29;20199;-66
2021/12/07 13:38:23;;;;;;;5.87;1.40;;;9.20;99.90;;;;;;4949395;29;20246;-65
2021/12/07 13:40:51;;;;;;;2.20;1.00;;;9.20;99.90;;;;;;4949543;28;20188;-65
2021/12/07 13:43:35;;;;;;;3.50;1.20;;;9.10;99.90;;;;;;4954251;28;20204;-66
2021/12/07 13:46:14;;;;;;;3.10;1.17;;;9.10;99.90;;;;;;4941259;29;20195;-66
2021/12/07 13:48:41;;;;;;;3.07;1.00;;;9.00;99.90;;;;;;4961498;28;20186;-66
2021/12/07 13:51:09;;;;;;;3.40;1.00;;;8.90;99.90;;;;;;4948858;28;20216;-67
2021/12/07 13:53:40;;;;;;;2.07;1.17;;;8.90;99.90;;;;;;4948615;29;20246;-67
2021/12/07 13:56:09;;;;;;;4.27;0.97;;;8.90;99.90;;;;;;4947869;29;20184;-66
2021/12/07 13:58:55;;;;;;;3.17;1.17;;;8.80;99.90;;;;;;4948042;28;20220;-66
2021/12/07 14:01:29;;;;;;;1.93;0.97;;;8.80;99.90;;;;;;4950096;29;20181;-66
2021/12/07 14:03:57;;;;;;;6.40;1.37;;;8.70;99.90;;;;;;4949849;28;20212;-66
2021/12/07 14:06:26;;;;;;;2.67;1.27;;;8.60;99.90;;;;;;4950300;28;20177;-66
2021/12/07 14:09:03;;;;;;;3.07;1.40;;;8.60;99.90;;;;;;4949654;29;20195;-66
2021/12/07 14:11:32;;;;;;;2.47;1.10;;;8.50;99.90;;;;;;4947251;28;20193;-66
2021/12/07 14:13:57;;;;;;;3.53;1.20;;;8.40;99.90;;;;;;4950207;29;20276;-66
2021/12/07 14:16:25;;;;;;;3.27;1.00;;;8.30;99.90;;;;;;4949795;29;20283;-66
2021/12/07 14:18:51;;;;;;;2.80;1.00;;;8.30;99.90;;;;;;4947072;28;20210;-66
2021/12/07 14:21:16;;;;;;;4.47;1.20;;;8.20;99.90;;;;;;4950864;29;20180;-66
2021/12/07 14:23:52;;;;;;;4.13;1.20;;;8.20;99.90;;;;;;4944030;29;20230;-66
2021/12/07 14:26:26;;;;;;;2.53;1.00;;;8.10;99.90;;;;;;4946108;29;20216;-65
2021/12/07 14:29:02;;;;;;;2.07;0.73;;;8.10;99.90;;;;;;4945540;29;20423;-66
2021/12/07 14:31:36;;;;;;;2.30;1.00;;;8.00;99.90;;;;;;4948319;29;20203;-66
2021/12/07 14:34:19;;;;;;;2.70;1.10;;;8.00;99.90;;;;;;4965258;28;20226;-65
2021/12/07 14:37:02;;;;;;;2.73;1.07;;;7.90;99.90;;;;;;4944150;29;20233;-67
2021/12/07 14:39:36;;;;;;;2.83;1.20;;;7.90;99.90;;;;;;4947093;29;20209;-67
2021/12/07 14:42:07;;;;;;;2.80;0.90;;;7.90;99.90;;;;;;4949447;28;20179;-65
2021/12/07 14:44:35;;;;;;;1.93;1.20;;;7.80;99.90;;;;;;4942367;28;20211;-66
2021/12/07 14:47:07;;;;;;;2.30;1.33;;;7.80;99.90;;;;;;4948387;29;20199;-67
2021/12/07 14:49:39;;;;;;;3.03;1.07;;;7.80;99.90;;;;;;4943989;29;20252;-64
2021/12/07 14:52:33;;;;;;;5.37;1.30;;;7.70;99.90;;;;;;4952119;28;20282;-65
2021/12/07 14:55:01;;;;;;;3.03;0.93;;;7.70;99.90;;;;;;4950119;28;20192;-65
2021/12/07 14:57:31;;;;;;;3.37;1.20;;;7.70;99.90;;;;;;4948038;29;20193;-65
2021/12/07 15:00:02;;;;;;;1.77;1.20;;;7.70;99.90;;;;;;4951955;28;20280;-65
2021/12/07 15:02:33;;;;;;;2.83;1.07;;;7.60;99.90;;;;;;4949203;29;20275;-66
2021/12/07 15:05:03;;;;;;;2.47;1.20;;;7.60;99.90;;;;;;4948984;29;20194;-66
2021/12/07 15:07:32;;;;;;;3.63;1.23;;;7.60;99.90;;;;;;4940745;29;20205;-66
2021/12/07 15:10:08;;;;;;;2.10;1.00;;;7.50;99.90;;;;;;4950537;28;20198;-66